sensor_id;sensor_type;location;lat;lon;timestamp;P1;durP1;ratioP1;P2;durP2;ratioP2
76208;SDS011;64990;51.698;-0.292;2024-01-30T00:01:55;30.63;;;11.20;;
76208;SDS011;64990;51.698;-0.292;2024-01-30T00:04:21;38.60;;;11.65;;
76208;SDS011;64990;51.698;-0.292;2024-01-30T00:06:47;31.08;;;9.65;;
76208;SDS011;64990;51.698;-0.292;2024-01-30T00:09:13;29.00;;;12.07;;
76208;SDS011;64990;51.698;-0.292;2024-01-30T00:11:40;54.25;;;12.45;;
76208;SDS011;64990;51.698;-0.292;2024-01-30T00:14:06;31.45;;;10.85;;
76208;SDS011;64990;51.698;-0.292;2024-01-30T00:16:32;23.98;;;9.43;;
76208;SDS011;64990;51.698;-0.292;2024-01-30T00:18:58;37.10;;;10.48;;
76208;SDS011;64990;51.698;-0.292;2024-01-30T00:21:24;43.75;;;11.68;;
76208;SDS011;64990;51.698;-0.292;2024-01-30T00:23:50;18.40;;;8.57;;
76208;SDS011;64990;51.698;-0.292;2024-01-30T00:26:16;28.65;;;8.95;;
76208;SDS011;64990;51.698;-0.292;2024-01-30T00:28:43;37.50;;;10.85;;
76208;SDS011;64990;51.698;-0.292;2024-01-30T00:31:09;23.13;;;7.22;;
76208;SDS011;64990;51.698;-0.292;2024-01-30T00:33:39;21.92;;;8.85;;
76208;SDS011;64990;51.698;-0.292;2024-01-30T00:36:05;20.70;;;7.15;;
76208;SDS011;64990;51.698;-0.292;2024-01-30T00:38:31;31.98;;;7.18;;
76208;SDS011;64990;51.698;-0.292;2024-01-30T00:40:58;23.65;;;8.13;;
76208;SDS011;64990;51.698;-0.292;2024-01-30T00:43:24;39.83;;;9.30;;
76208;SDS011;64990;51.698;-0.292;2024-01-30T00:45:50;18.83;;;7.22;;
76208;SDS011;64990;51.698;-0.292;2024-01-30T00:48:20;17.60;;;7.15;;
76208;SDS011;64990;51.698;-0.292;2024-01-30T00:50:46;36.28;;;8.02;;
76208;SDS011;64990;51.698;-0.292;2024-01-30T00:53:12;22.60;;;7.45;;
76208;SDS011;64990;51.698;-0.292;2024-01-30T00:55:38;15.68;;;7.03;;
76208;SDS011;64990;51.698;-0.292;2024-01-30T00:58:04;19.13;;;5.07;;
76208;SDS011;64990;51.698;-0.292;2024-01-30T01:00:30;14.82;;;7.43;;
76208;SDS011;64990;51.698;-0.292;2024-01-30T01:02:57;15.13;;;5.07;;
76208;SDS011;64990;51.698;-0.292;2024-01-30T01:05:23;14.80;;;4.35;;
76208;SDS011;64990;51.698;-0.292;2024-01-30T01:07:49;22.02;;;5.38;;
76208;SDS011;64990;51.698;-0.292;2024-01-30T01:10:18;16.00;;;4.65;;
76208;SDS011;64990;51.698;-0.292;2024-01-30T01:12:44;12.20;;;4.45;;
76208;SDS011;64990;51.698;-0.292;2024-01-30T01:15:10;6.95;;;2.58;;
76208;SDS011;64990;51.698;-0.292;2024-01-30T01:17:37;8.05;;;2.97;;
76208;SDS011;64990;51.698;-0.292;2024-01-30T01:20:03;8.82;;;2.05;;
76208;SDS011;64990;51.698;-0.292;2024-01-30T01:22:30;13.18;;;3.10;;
76208;SDS011;64990;51.698;-0.292;2024-01-30T01:24:56;6.85;;;2.20;;
76208;SDS011;64990;51.698;-0.292;2024-01-30T01:27:22;6.78;;;2.28;;
76208;SDS011;64990;51.698;-0.292;2024-01-30T01:29:48;4.78;;;1.60;;
76208;SDS011;64990;51.698;-0.292;2024-01-30T01:32:14;7.65;;;2.33;;
76208;SDS011;64990;51.698;-0.292;2024-01-30T01:34:41;5.68;;;1.70;;
76208;SDS011;64990;51.698;-0.292;2024-01-30T01:37:07;4.10;;;1.02;;
76208;SDS011;64990;51.698;-0.292;2024-01-30T01:39:33;6.82;;;2.92;;
76208;SDS011;64990;51.698;-0.292;2024-01-30T01:41:59;5.55;;;2.38;;
76208;SDS011;64990;51.698;-0.292;2024-01-30T01:44:25;5.72;;;1.27;;
76208;SDS011;64990;51.698;-0.292;2024-01-30T01:46:51;7.35;;;1.20;;
76208;SDS011;64990;51.698;-0.292;2024-01-30T01:49:18;2.42;;;0.93;;
76208;SDS011;64990;51.698;-0.292;2024-01-30T01:51:44;15.70;;;2.75;;
76208;SDS011;64990;51.698;-0.292;2024-01-30T01:54:11;11.40;;;2.40;;
76208;SDS011;64990;51.698;-0.292;2024-01-30T01:56:37;8.82;;;1.85;;
76208;SDS011;64990;51.698;-0.292;2024-01-30T01:59:07;7.60;;;1.40;;
76208;SDS011;64990;51.698;-0.292;2024-01-30T02:01:33;8.50;;;1.48;;
76208;SDS011;64990;51.698;-0.292;2024-01-30T02:04:00;5.43;;;1.45;;
76208;SDS011;64990;51.698;-0.292;2024-01-30T02:06:26;3.67;;;1.08;;
76208;SDS011;64990;51.698;-0.292;2024-01-30T02:08:53;12.00;;;1.90;;
76208;SDS011;64990;51.698;-0.292;2024-01-30T02:11:19;3.50;;;2.10;;
76208;SDS011;64990;51.698;-0.292;2024-01-30T02:13:45;10.55;;;1.63;;
76208;SDS011;64990;51.698;-0.292;2024-01-30T02:16:11;8.70;;;1.30;;
76208;SDS011;64990;51.698;-0.292;2024-01-30T02:18:37;9.75;;;1.98;;
76208;SDS011;64990;51.698;-0.292;2024-01-30T02:21:10;10.27;;;2.08;;
76208;SDS011;64990;51.698;-0.292;2024-01-30T02:23:36;14.75;;;3.20;;
76208;SDS011;64990;51.698;-0.292;2024-01-30T02:26:02;2.83;;;0.95;;
76208;SDS011;64990;51.698;-0.292;2024-01-30T02:28:28;6.20;;;1.80;;
76208;SDS011;64990;51.698;-0.292;2024-01-30T02:30:54;3.95;;;1.27;;
76208;SDS011;64990;51.698;-0.292;2024-01-30T02:33:20;1.48;;;0.98;;
76208;SDS011;64990;51.698;-0.292;2024-01-30T02:35:47;6.53;;;0.85;;
76208;SDS011;64990;51.698;-0.292;2024-01-30T02:38:13;12.50;;;2.45;;
76208;SDS011;64990;51.698;-0.292;2024-01-30T02:40:39;7.90;;;2.22;;
76208;SDS011;64990;51.698;-0.292;2024-01-30T02:43:05;13.68;;;2.40;;
76208;SDS011;64990;51.698;-0.292;2024-01-30T02:45:31;5.40;;;0.98;;
76208;SDS011;64990;51.698;-0.292;2024-01-30T02:47:57;6.28;;;2.05;;
76208;SDS011;64990;51.698;-0.292;2024-01-30T02:50:23;2.92;;;0.90;;
76208;SDS011;64990;51.698;-0.292;2024-01-30T02:52:49;6.78;;;2.10;;
76208;SDS011;64990;51.698;-0.292;2024-01-30T02:55:15;3.50;;;1.77;;
76208;SDS011;64990;51.698;-0.292;2024-01-30T02:57:43;5.50;;;1.13;;
76208;SDS011;64990;51.698;-0.292;2024-01-30T03:00:09;1.17;;;1.02;;
76208;SDS011;64990;51.698;-0.292;2024-01-30T03:02:35;4.85;;;0.82;;
76208;SDS011;64990;51.698;-0.292;2024-01-30T03:05:01;4.90;;;1.15;;
76208;SDS011;64990;51.698;-0.292;2024-01-30T03:07:28;5.15;;;1.65;;
76208;SDS011;64990;51.698;-0.292;2024-01-30T03:09:54;1.27;;;0.93;;
76208;SDS011;64990;51.698;-0.292;2024-01-30T03:12:21;2.97;;;1.40;;
76208;SDS011;64990;51.698;-0.292;2024-01-30T03:14:47;1.77;;;0.93;;
76208;SDS011;64990;51.698;-0.292;2024-01-30T03:17:13;1.33;;;0.80;;
76208;SDS011;64990;51.698;-0.292;2024-01-30T03:19:39;2.50;;;0.65;;
76208;SDS011;64990;51.698;-0.292;2024-01-30T03:22:05;3.80;;;1.17;;
76208;SDS011;64990;51.698;-0.292;2024-01-30T03:24:31;3.88;;;1.00;;
76208;SDS011;64990;51.698;-0.292;2024-01-30T03:26:57;6.95;;;1.48;;
76208;SDS011;64990;51.698;-0.292;2024-01-30T03:29:23;1.13;;;1.02;;
76208;SDS011;64990;51.698;-0.292;2024-01-30T03:31:50;5.05;;;1.10;;
76208;SDS011;64990;51.698;-0.292;2024-01-30T03:34:16;1.00;;;0.73;;
76208;SDS011;64990;51.698;-0.292;2024-01-30T03:36:42;20.75;;;2.33;;
76208;SDS011;64990;51.698;-0.292;2024-01-30T03:39:07;4.05;;;1.10;;
76208;SDS011;64990;51.698;-0.292;2024-01-30T03:41:33;2.17;;;0.60;;
76208;SDS011;64990;51.698;-0.292;2024-01-30T03:43:59;1.75;;;0.80;;
76208;SDS011;64990;51.698;-0.292;2024-01-30T03:46:25;5.70;;;0.73;;
76208;SDS011;64990;51.698;-0.292;2024-01-30T03:48:52;1.58;;;0.80;;
76208;SDS011;64990;51.698;-0.292;2024-01-30T03:51:18;7.78;;;1.67;;
76208;SDS011;64990;51.698;-0.292;2024-01-30T03:53:44;5.97;;;0.90;;
76208;SDS011;64990;51.698;-0.292;2024-01-30T03:56:13;1.13;;;0.60;;
76208;SDS011;64990;51.698;-0.292;2024-01-30T03:58:39;10.35;;;1.33;;
76208;SDS011;64990;51.698;-0.292;2024-01-30T04:01:05;9.95;;;1.05;;
76208;SDS011;64990;51.698;-0.292;2024-01-30T04:03:31;2.28;;;0.60;;
76208;SDS011;64990;51.698;-0.292;2024-01-30T04:05:57;1.58;;;0.60;;
76208;SDS011;64990;51.698;-0.292;2024-01-30T04:08:23;1.38;;;1.00;;
76208;SDS011;64990;51.698;-0.292;2024-01-30T04:10:49;4.97;;;0.80;;
76208;SDS011;64990;51.698;-0.292;2024-01-30T04:13:15;3.60;;;0.93;;
76208;SDS011;64990;51.698;-0.292;2024-01-30T04:15:41;7.35;;;0.70;;
76208;SDS011;64990;51.698;-0.292;2024-01-30T04:18:07;3.42;;;0.98;;
76208;SDS011;64990;51.698;-0.292;2024-01-30T04:20:33;1.63;;;1.13;;
76208;SDS011;64990;51.698;-0.292;2024-01-30T04:23:02;2.25;;;0.98;;
76208;SDS011;64990;51.698;-0.292;2024-01-30T04:25:28;2.95;;;0.73;;
76208;SDS011;64990;51.698;-0.292;2024-01-30T04:27:54;3.15;;;1.45;;
76208;SDS011;64990;51.698;-0.292;2024-01-30T04:30:20;1.35;;;1.23;;
76208;SDS011;64990;51.698;-0.292;2024-01-30T04:32:46;10.35;;;1.77;;
76208;SDS011;64990;51.698;-0.292;2024-01-30T04:35:12;1.25;;;0.82;;
76208;SDS011;64990;51.698;-0.292;2024-01-30T04:37:39;1.63;;;0.85;;
76208;SDS011;64990;51.698;-0.292;2024-01-30T04:40:05;4.95;;;1.25;;
76208;SDS011;64990;51.698;-0.292;2024-01-30T04:42:31;0.60;;;0.60;;
76208;SDS011;64990;51.698;-0.292;2024-01-30T04:44:57;1.80;;;0.93;;
76208;SDS011;64990;51.698;-0.292;2024-01-30T04:47:23;3.10;;;1.33;;
76208;SDS011;64990;51.698;-0.292;2024-01-30T04:49:51;2.22;;;0.80;;
76208;SDS011;64990;51.698;-0.292;2024-01-30T04:52:17;2.80;;;1.33;;
76208;SDS011;64990;51.698;-0.292;2024-01-30T04:54:43;0.88;;;0.68;;
76208;SDS011;64990;51.698;-0.292;2024-01-30T04:57:09;5.38;;;1.05;;
76208;SDS011;64990;51.698;-0.292;2024-01-30T04:59:37;2.40;;;1.65;;
76208;SDS011;64990;51.698;-0.292;2024-01-30T05:02:03;6.80;;;0.90;;
76208;SDS011;64990;51.698;-0.292;2024-01-30T05:04:29;3.50;;;1.00;;
76208;SDS011;64990;51.698;-0.292;2024-01-30T05:06:55;1.73;;;1.20;;
76208;SDS011;64990;51.698;-0.292;2024-01-30T05:09:21;1.70;;;1.20;;
76208;SDS011;64990;51.698;-0.292;2024-01-30T05:11:47;4.72;;;1.65;;
76208;SDS011;64990;51.698;-0.292;2024-01-30T05:14:13;2.15;;;1.00;;
76208;SDS011;64990;51.698;-0.292;2024-01-30T05:16:40;2.42;;;1.27;;
76208;SDS011;64990;51.698;-0.292;2024-01-30T05:19:07;6.80;;;1.85;;
76208;SDS011;64990;51.698;-0.292;2024-01-30T05:21:34;5.90;;;1.73;;
76208;SDS011;64990;51.698;-0.292;2024-01-30T05:24:00;1.27;;;1.08;;
76208;SDS011;64990;51.698;-0.292;2024-01-30T05:26:26;4.07;;;1.30;;
76208;SDS011;64990;51.698;-0.292;2024-01-30T05:28:52;5.53;;;1.60;;
76208;SDS011;64990;51.698;-0.292;2024-01-30T05:31:18;0.98;;;0.77;;
76208;SDS011;64990;51.698;-0.292;2024-01-30T05:33:44;2.22;;;1.25;;
76208;SDS011;64990;51.698;-0.292;2024-01-30T05:36:13;3.85;;;1.20;;
76208;SDS011;64990;51.698;-0.292;2024-01-30T05:38:39;0.82;;;0.80;;
76208;SDS011;64990;51.698;-0.292;2024-01-30T05:41:05;3.63;;;1.38;;
76208;SDS011;64990;51.698;-0.292;2024-01-30T05:43:31;5.60;;;1.70;;
76208;SDS011;64990;51.698;-0.292;2024-01-30T05:45:57;6.65;;;2.03;;
76208;SDS011;64990;51.698;-0.292;2024-01-30T05:48:23;2.22;;;1.55;;
76208;SDS011;64990;51.698;-0.292;2024-01-30T05:50:49;2.45;;;1.52;;
76208;SDS011;64990;51.698;-0.292;2024-01-30T05:53:15;3.28;;;1.98;;
76208;SDS011;64990;51.698;-0.292;2024-01-30T05:55:41;19.33;;;2.17;;
76208;SDS011;64990;51.698;-0.292;2024-01-30T05:58:07;18.27;;;2.55;;
76208;SDS011;64990;51.698;-0.292;2024-01-30T06:00:33;2.38;;;1.55;;
76208;SDS011;64990;51.698;-0.292;2024-01-30T06:02:59;2.70;;;1.65;;
76208;SDS011;64990;51.698;-0.292;2024-01-30T06:05:25;8.38;;;3.05;;
76208;SDS011;64990;51.698;-0.292;2024-01-30T06:07:51;2.60;;;2.10;;
76208;SDS011;64990;51.698;-0.292;2024-01-30T06:10:17;4.85;;;2.00;;
76208;SDS011;64990;51.698;-0.292;2024-01-30T06:12:43;8.32;;;4.22;;
76208;SDS011;64990;51.698;-0.292;2024-01-30T06:15:09;3.83;;;2.75;;
76208;SDS011;64990;51.698;-0.292;2024-01-30T06:17:37;4.53;;;2.85;;
76208;SDS011;64990;51.698;-0.292;2024-01-30T06:20:04;24.13;;;4.38;;
76208;SDS011;64990;51.698;-0.292;2024-01-30T06:22:30;7.82;;;3.67;;
76208;SDS011;64990;51.698;-0.292;2024-01-30T06:24:56;10.00;;;3.53;;
76208;SDS011;64990;51.698;-0.292;2024-01-30T06:27:22;8.32;;;2.70;;
76208;SDS011;64990;51.698;-0.292;2024-01-30T06:29:48;8.50;;;3.38;;
76208;SDS011;64990;51.698;-0.292;2024-01-30T06:32:14;13.68;;;4.68;;
76208;SDS011;64990;51.698;-0.292;2024-01-30T06:34:40;10.32;;;4.07;;
76208;SDS011;64990;51.698;-0.292;2024-01-30T06:37:08;8.93;;;5.10;;
76208;SDS011;64990;51.698;-0.292;2024-01-30T06:39:34;9.23;;;4.38;;
76208;SDS011;64990;51.698;-0.292;2024-01-30T06:42:01;6.90;;;4.13;;
76208;SDS011;64990;51.698;-0.292;2024-01-30T06:44:27;7.82;;;4.32;;
76208;SDS011;64990;51.698;-0.292;2024-01-30T06:46:53;5.40;;;3.47;;
76208;SDS011;64990;51.698;-0.292;2024-01-30T06:49:19;3.97;;;3.05;;
76208;SDS011;64990;51.698;-0.292;2024-01-30T06:51:46;4.93;;;3.83;;
76208;SDS011;64990;51.698;-0.292;2024-01-30T06:54:12;4.60;;;2.97;;
76208;SDS011;64990;51.698;-0.292;2024-01-30T06:56:38;4.00;;;3.17;;
76208;SDS011;64990;51.698;-0.292;2024-01-30T06:59:04;20.55;;;4.18;;
76208;SDS011;64990;51.698;-0.292;2024-01-30T07:01:31;4.60;;;3.60;;
76208;SDS011;64990;51.698;-0.292;2024-01-30T07:03:57;4.50;;;3.58;;
76208;SDS011;64990;51.698;-0.292;2024-01-30T07:06:23;7.80;;;2.88;;
76208;SDS011;64990;51.698;-0.292;2024-01-30T07:08:50;3.88;;;2.40;;
76208;SDS011;64990;51.698;-0.292;2024-01-30T07:11:19;3.42;;;2.03;;
76208;SDS011;64990;51.698;-0.292;2024-01-30T07:13:49;2.30;;;1.92;;
76208;SDS011;64990;51.698;-0.292;2024-01-30T07:16:15;4.78;;;2.00;;
76208;SDS011;64990;51.698;-0.292;2024-01-30T07:18:41;2.78;;;1.83;;
76208;SDS011;64990;51.698;-0.292;2024-01-30T07:21:07;1.63;;;1.20;;
76208;SDS011;64990;51.698;-0.292;2024-01-30T07:23:34;0.75;;;0.75;;
76208;SDS011;64990;51.698;-0.292;2024-01-30T07:26:03;2.10;;;1.10;;
76208;SDS011;64990;51.698;-0.292;2024-01-30T07:28:29;6.65;;;2.20;;
76208;SDS011;64990;51.698;-0.292;2024-01-30T07:30:55;3.03;;;1.17;;
76208;SDS011;64990;51.698;-0.292;2024-01-30T07:33:21;1.08;;;0.80;;
76208;SDS011;64990;51.698;-0.292;2024-01-30T07:35:47;3.75;;;0.73;;
76208;SDS011;64990;51.698;-0.292;2024-01-30T07:38:13;1.27;;;0.90;;
76208;SDS011;64990;51.698;-0.292;2024-01-30T07:40:39;0.70;;;0.70;;
76208;SDS011;64990;51.698;-0.292;2024-01-30T07:43:06;0.70;;;0.70;;
76208;SDS011;64990;51.698;-0.292;2024-01-30T07:45:32;1.35;;;1.25;;
76208;SDS011;64990;51.698;-0.292;2024-01-30T07:47:58;0.77;;;0.70;;
76208;SDS011;64990;51.698;-0.292;2024-01-30T07:50:27;2.15;;;0.80;;
76208;SDS011;64990;51.698;-0.292;2024-01-30T07:52:53;1.05;;;0.75;;
76208;SDS011;64990;51.698;-0.292;2024-01-30T07:55:19;1.05;;;0.85;;
76208;SDS011;64990;51.698;-0.292;2024-01-30T07:57:47;2.65;;;1.05;;
76208;SDS011;64990;51.698;-0.292;2024-01-30T08:00:13;2.25;;;0.90;;
76208;SDS011;64990;51.698;-0.292;2024-01-30T08:02:40;2.60;;;1.60;;
76208;SDS011;64990;51.698;-0.292;2024-01-30T08:05:06;1.65;;;1.55;;
76208;SDS011;64990;51.698;-0.292;2024-01-30T08:07:34;0.82;;;0.60;;
76208;SDS011;64990;51.698;-0.292;2024-01-30T08:10:00;1.88;;;1.20;;
76208;SDS011;64990;51.698;-0.292;2024-01-30T08:12:26;0.75;;;0.75;;
76208;SDS011;64990;51.698;-0.292;2024-01-30T08:14:52;1.67;;;1.10;;
76208;SDS011;64990;51.698;-0.292;2024-01-30T08:17:18;1.05;;;0.80;;
76208;SDS011;64990;51.698;-0.292;2024-01-30T08:19:44;1.42;;;1.02;;
76208;SDS011;64990;51.698;-0.292;2024-01-30T08:22:11;7.68;;;1.48;;
76208;SDS011;64990;51.698;-0.292;2024-01-30T08:24:38;1.25;;;1.08;;
76208;SDS011;64990;51.698;-0.292;2024-01-30T08:27:05;1.02;;;0.98;;
76208;SDS011;64990;51.698;-0.292;2024-01-30T08:29:31;9.63;;;2.33;;
76208;SDS011;64990;51.698;-0.292;2024-01-30T08:31:57;1.15;;;1.00;;
76208;SDS011;64990;51.698;-0.292;2024-01-30T08:34:24;1.40;;;1.30;;
76208;SDS011;64990;51.698;-0.292;2024-01-30T08:36:50;1.85;;;1.42;;
76208;SDS011;64990;51.698;-0.292;2024-01-30T08:39:16;5.82;;;1.38;;
76208;SDS011;64990;51.698;-0.292;2024-01-30T08:41:42;2.20;;;1.35;;
76208;SDS011;64990;51.698;-0.292;2024-01-30T08:44:08;2.42;;;1.73;;
76208;SDS011;64990;51.698;-0.292;2024-01-30T08:46:36;3.13;;;0.90;;
76208;SDS011;64990;51.698;-0.292;2024-01-30T08:49:02;3.25;;;1.67;;
76208;SDS011;64990;51.698;-0.292;2024-01-30T08:51:29;4.55;;;0.93;;
76208;SDS011;64990;51.698;-0.292;2024-01-30T08:53:55;3.75;;;1.83;;
76208;SDS011;64990;51.698;-0.292;2024-01-30T08:56:21;1.35;;;1.10;;
76208;SDS011;64990;51.698;-0.292;2024-01-30T08:58:47;3.50;;;1.02;;
76208;SDS011;64990;51.698;-0.292;2024-01-30T09:01:14;7.22;;;1.90;;
76208;SDS011;64990;51.698;-0.292;2024-01-30T09:03:40;4.82;;;1.13;;
76208;SDS011;64990;51.698;-0.292;2024-01-30T09:06:11;1.85;;;1.17;;
76208;SDS011;64990;51.698;-0.292;2024-01-30T09:08:37;1.88;;;1.30;;
76208;SDS011;64990;51.698;-0.292;2024-01-30T09:11:10;1.63;;;1.00;;
76208;SDS011;64990;51.698;-0.292;2024-01-30T09:13:37;3.75;;;1.33;;
76208;SDS011;64990;51.698;-0.292;2024-01-30T09:16:03;9.23;;;2.05;;
76208;SDS011;64990;51.698;-0.292;2024-01-30T09:18:29;8.10;;;2.13;;
76208;SDS011;64990;51.698;-0.292;2024-01-30T09:20:55;3.15;;;1.23;;
76208;SDS011;64990;51.698;-0.292;2024-01-30T09:23:21;7.80;;;1.20;;
76208;SDS011;64990;51.698;-0.292;2024-01-30T09:25:47;4.90;;;2.03;;
76208;SDS011;64990;51.698;-0.292;2024-01-30T09:28:13;5.00;;;2.47;;
76208;SDS011;64990;51.698;-0.292;2024-01-30T09:30:39;3.80;;;2.60;;
76208;SDS011;64990;51.698;-0.292;2024-01-30T09:33:06;9.00;;;3.75;;
76208;SDS011;64990;51.698;-0.292;2024-01-30T09:35:32;7.35;;;3.85;;
76208;SDS011;64990;51.698;-0.292;2024-01-30T09:37:58;12.10;;;6.53;;
76208;SDS011;64990;51.698;-0.292;2024-01-30T09:40:24;5.15;;;2.83;;
76208;SDS011;64990;51.698;-0.292;2024-01-30T09:42:51;2.97;;;1.55;;
76208;SDS011;64990;51.698;-0.292;2024-01-30T09:45:17;7.00;;;2.97;;
76208;SDS011;64990;51.698;-0.292;2024-01-30T09:47:44;4.50;;;2.75;;
76208;SDS011;64990;51.698;-0.292;2024-01-30T09:50:11;5.50;;;2.70;;
76208;SDS011;64990;51.698;-0.292;2024-01-30T09:52:38;2.55;;;2.03;;
76208;SDS011;64990;51.698;-0.292;2024-01-30T09:55:04;1.52;;;0.90;;
76208;SDS011;64990;51.698;-0.292;2024-01-30T09:57:30;2.47;;;1.58;;
76208;SDS011;64990;51.698;-0.292;2024-01-30T09:59:56;5.90;;;1.77;;
76208;SDS011;64990;51.698;-0.292;2024-01-30T10:02:22;7.03;;;1.38;;
76208;SDS011;64990;51.698;-0.292;2024-01-30T10:04:49;1.13;;;1.05;;
76208;SDS011;64990;51.698;-0.292;2024-01-30T10:07:16;3.05;;;1.20;;
76208;SDS011;64990;51.698;-0.292;2024-01-30T10:09:45;3.72;;;1.20;;
76208;SDS011;64990;51.698;-0.292;2024-01-30T10:12:11;3.40;;;1.67;;
76208;SDS011;64990;51.698;-0.292;2024-01-30T10:14:38;1.80;;;0.90;;
76208;SDS011;64990;51.698;-0.292;2024-01-30T10:17:04;1.25;;;0.90;;
76208;SDS011;64990;51.698;-0.292;2024-01-30T10:19:31;0.80;;;0.70;;
76208;SDS011;64990;51.698;-0.292;2024-01-30T10:21:57;1.27;;;1.13;;
76208;SDS011;64990;51.698;-0.292;2024-01-30T10:24:26;0.60;;;0.60;;
76208;SDS011;64990;51.698;-0.292;2024-01-30T10:26:54;0.70;;;0.70;;
76208;SDS011;64990;51.698;-0.292;2024-01-30T10:29:20;0.95;;;0.70;;
76208;SDS011;64990;51.698;-0.292;2024-01-30T10:31:46;1.67;;;1.13;;
76208;SDS011;64990;51.698;-0.292;2024-01-30T10:34:22;1.13;;;0.70;;
76208;SDS011;64990;51.698;-0.292;2024-01-30T10:36:49;1.13;;;0.70;;
76208;SDS011;64990;51.698;-0.292;2024-01-30T10:39:16;0.68;;;0.50;;
76208;SDS011;64990;51.698;-0.292;2024-01-30T10:41:43;2.97;;;0.80;;
76208;SDS011;64990;51.698;-0.292;2024-01-30T10:44:10;1.30;;;1.15;;
76208;SDS011;64990;51.698;-0.292;2024-01-30T10:46:40;1.73;;;0.85;;
76208;SDS011;64990;51.698;-0.292;2024-01-30T10:49:07;1.63;;;0.80;;
76208;SDS011;64990;51.698;-0.292;2024-01-30T10:51:33;3.13;;;0.80;;
76208;SDS011;64990;51.698;-0.292;2024-01-30T10:54:00;1.08;;;0.98;;
76208;SDS011;64990;51.698;-0.292;2024-01-30T10:56:27;1.23;;;0.80;;
76208;SDS011;64990;51.698;-0.292;2024-01-30T10:58:53;3.85;;;1.00;;
76208;SDS011;64990;51.698;-0.292;2024-01-30T11:01:23;1.55;;;0.95;;
76208;SDS011;64990;51.698;-0.292;2024-01-30T11:03:55;4.03;;;1.02;;
76208;SDS011;64990;51.698;-0.292;2024-01-30T11:06:22;1.77;;;0.65;;
76208;SDS011;64990;51.698;-0.292;2024-01-30T11:09:04;1.35;;;1.20;;
76208;SDS011;64990;51.698;-0.292;2024-01-30T11:14:16;3.05;;;0.82;;
76208;SDS011;64990;51.698;-0.292;2024-01-30T11:16:42;3.33;;;0.88;;
76208;SDS011;64990;51.698;-0.292;2024-01-30T11:19:11;1.38;;;0.60;;
76208;SDS011;64990;51.698;-0.292;2024-01-30T11:21:41;0.47;;;0.47;;
76208;SDS011;64990;51.698;-0.292;2024-01-30T11:24:10;1.13;;;0.70;;
76208;SDS011;64990;51.698;-0.292;2024-01-30T11:26:38;1.63;;;0.63;;
76208;SDS011;64990;51.698;-0.292;2024-01-30T11:29:07;0.65;;;0.65;;
76208;SDS011;64990;51.698;-0.292;2024-01-30T11:31:34;0.90;;;0.73;;
76208;SDS011;64990;51.698;-0.292;2024-01-30T11:34:00;0.50;;;0.50;;
76208;SDS011;64990;51.698;-0.292;2024-01-30T11:36:27;0.80;;;0.40;;
76208;SDS011;64990;51.698;-0.292;2024-01-30T11:38:54;0.75;;;0.52;;
76208;SDS011;64990;51.698;-0.292;2024-01-30T11:41:20;0.63;;;0.63;;
76208;SDS011;64990;51.698;-0.292;2024-01-30T11:43:52;0.68;;;0.65;;
76208;SDS011;64990;51.698;-0.292;2024-01-30T11:46:19;0.65;;;0.52;;
76208;SDS011;64990;51.698;-0.292;2024-01-30T11:48:45;4.72;;;1.00;;
76208;SDS011;64990;51.698;-0.292;2024-01-30T11:51:12;0.40;;;0.40;;
76208;SDS011;64990;51.698;-0.292;2024-01-30T11:53:38;2.25;;;0.45;;
76208;SDS011;64990;51.698;-0.292;2024-01-30T11:56:07;0.73;;;0.73;;
76208;SDS011;64990;51.698;-0.292;2024-01-30T11:58:33;0.82;;;0.82;;
76208;SDS011;64990;51.698;-0.292;2024-01-30T12:00:59;2.78;;;0.68;;
76208;SDS011;64990;51.698;-0.292;2024-01-30T12:03:26;1.20;;;0.80;;
76208;SDS011;64990;51.698;-0.292;2024-01-30T12:05:55;3.45;;;0.50;;
76208;SDS011;64990;51.698;-0.292;2024-01-30T12:08:22;0.57;;;0.57;;
76208;SDS011;64990;51.698;-0.292;2024-01-30T12:10:55;0.75;;;0.50;;
76208;SDS011;64990;51.698;-0.292;2024-01-30T12:13:21;0.90;;;0.60;;
76208;SDS011;64990;51.698;-0.292;2024-01-30T12:15:47;0.60;;;0.60;;
76208;SDS011;64990;51.698;-0.292;2024-01-30T12:18:13;2.63;;;0.60;;
76208;SDS011;64990;51.698;-0.292;2024-01-30T12:20:39;1.17;;;0.52;;
76208;SDS011;64990;51.698;-0.292;2024-01-30T12:23:05;5.60;;;0.68;;
76208;SDS011;64990;51.698;-0.292;2024-01-30T12:25:31;2.17;;;0.90;;
76208;SDS011;64990;51.698;-0.292;2024-01-30T12:27:58;4.05;;;0.70;;
76208;SDS011;64990;51.698;-0.292;2024-01-30T12:30:24;1.70;;;1.35;;
76208;SDS011;64990;51.698;-0.292;2024-01-30T12:32:50;0.50;;;0.50;;
76208;SDS011;64990;51.698;-0.292;2024-01-30T12:35:16;1.75;;;0.95;;
76208;SDS011;64990;51.698;-0.292;2024-01-30T12:37:43;4.22;;;0.73;;
76208;SDS011;64990;51.698;-0.292;2024-01-30T12:40:10;1.13;;;0.75;;
76208;SDS011;64990;51.698;-0.292;2024-01-30T12:42:38;4.13;;;0.63;;
76208;SDS011;64990;51.698;-0.292;2024-01-30T12:45:04;0.85;;;0.73;;
76208;SDS011;64990;51.698;-0.292;2024-01-30T12:47:31;1.10;;;0.68;;
76208;SDS011;64990;51.698;-0.292;2024-01-30T12:49:57;19.25;;;1.70;;
76208;SDS011;64990;51.698;-0.292;2024-01-30T12:52:23;0.50;;;0.50;;
76208;SDS011;64990;51.698;-0.292;2024-01-30T12:54:49;2.60;;;0.95;;
76208;SDS011;64990;51.698;-0.292;2024-01-30T12:57:16;1.60;;;0.75;;
76208;SDS011;64990;51.698;-0.292;2024-01-30T12:59:45;5.10;;;1.20;;
76208;SDS011;64990;51.698;-0.292;2024-01-30T13:02:12;1.15;;;0.82;;
76208;SDS011;64990;51.698;-0.292;2024-01-30T13:04:38;0.68;;;0.68;;
76208;SDS011;64990;51.698;-0.292;2024-01-30T13:07:04;3.22;;;0.60;;
76208;SDS011;64990;51.698;-0.292;2024-01-30T13:09:30;0.90;;;0.90;;
76208;SDS011;64990;51.698;-0.292;2024-01-30T13:11:57;7.78;;;1.08;;
76208;SDS011;64990;51.698;-0.292;2024-01-30T13:14:24;11.32;;;2.03;;
76208;SDS011;64990;51.698;-0.292;2024-01-30T13:16:50;0.93;;;0.90;;
76208;SDS011;64990;51.698;-0.292;2024-01-30T13:19:16;10.00;;;1.80;;
76208;SDS011;64990;51.698;-0.292;2024-01-30T13:21:42;1.48;;;1.05;;
76208;SDS011;64990;51.698;-0.292;2024-01-30T13:24:08;1.88;;;0.88;;
76208;SDS011;64990;51.698;-0.292;2024-01-30T13:26:34;7.45;;;0.93;;
76208;SDS011;64990;51.698;-0.292;2024-01-30T13:29:00;1.38;;;1.27;;
76208;SDS011;64990;51.698;-0.292;2024-01-30T13:31:26;0.55;;;0.55;;
76208;SDS011;64990;51.698;-0.292;2024-01-30T13:33:56;2.80;;;0.80;;
76208;SDS011;64990;51.698;-0.292;2024-01-30T13:36:22;4.43;;;1.67;;
76208;SDS011;64990;51.698;-0.292;2024-01-30T13:38:48;0.73;;;0.70;;
76208;SDS011;64990;51.698;-0.292;2024-01-30T13:41:14;4.25;;;1.25;;
76208;SDS011;64990;51.698;-0.292;2024-01-30T13:43:41;0.60;;;0.60;;
76208;SDS011;64990;51.698;-0.292;2024-01-30T13:46:07;2.60;;;0.80;;
76208;SDS011;64990;51.698;-0.292;2024-01-30T13:48:33;8.65;;;1.65;;
76208;SDS011;64990;51.698;-0.292;2024-01-30T13:50:59;1.23;;;1.00;;
76208;SDS011;64990;51.698;-0.292;2024-01-30T13:53:25;3.35;;;1.13;;
76208;SDS011;64990;51.698;-0.292;2024-01-30T13:55:51;8.95;;;1.23;;
76208;SDS011;64990;51.698;-0.292;2024-01-30T13:58:17;2.72;;;0.93;;
76208;SDS011;64990;51.698;-0.292;2024-01-30T14:00:43;1.33;;;1.05;;
76208;SDS011;64990;51.698;-0.292;2024-01-30T14:03:10;0.90;;;0.90;;
76208;SDS011;64990;51.698;-0.292;2024-01-30T14:05:36;2.90;;;1.63;;
76208;SDS011;64990;51.698;-0.292;2024-01-30T14:08:03;1.67;;;1.35;;
76208;SDS011;64990;51.698;-0.292;2024-01-30T14:10:30;5.68;;;2.05;;
76208;SDS011;64990;51.698;-0.292;2024-01-30T14:12:56;2.22;;;1.67;;
76208;SDS011;64990;51.698;-0.292;2024-01-30T14:15:22;2.60;;;1.50;;
76208;SDS011;64990;51.698;-0.292;2024-01-30T14:17:48;0.98;;;0.98;;
76208;SDS011;64990;51.698;-0.292;2024-01-30T14:20:14;2.95;;;1.63;;
76208;SDS011;64990;51.698;-0.292;2024-01-30T14:22:44;15.90;;;2.70;;
76208;SDS011;64990;51.698;-0.292;2024-01-30T14:25:10;3.80;;;2.38;;
76208;SDS011;64990;51.698;-0.292;2024-01-30T14:27:37;11.23;;;1.92;;
76208;SDS011;64990;51.698;-0.292;2024-01-30T14:30:03;6.05;;;2.10;;
76208;SDS011;64990;51.698;-0.292;2024-01-30T14:32:29;2.05;;;1.25;;